< < Back
Terminal Aerodrome Forecast


Current Version              Previous Versions:   1  2  3  4  5  6  7  8  9  

Terminal Aerodrome Forecast

887
FTUS44 KBMX 251135
TAFTCL
TAF
KTCL 251135Z 2512/2612 18009KT P6SM SCT250
      TEMPO 2512/2513 4SM BR=

Latest METAR

666
SAUS70 KWBC 252300 RRC
MTRTCL
METAR KTCL 252253Z 17009KT 10SM CLR 29/14 A3012 RMK AO2 SLP196
T02890144


USA.gov is the U.S. government's official web portal to all federal, state and local government web resources and services.